Time;durP1;ratioP1;P1;durP2;ratioP2;P2;SDS_P1;SDS_P2;PMS_P1;PMS_P2;Temp;Humidity;BMP_temperature;BMP_pressure;BME280_temperature;BME280_humidity;BME280_pressure;Samples;Min_cycle;Max_cycle;Signal;HPM_P1;HPM_P2
2022/03/26 00:01:36;;;;;;;209.02;92.50;;;5.40;99.90;;;;;;5055470;28;20033;-69
2022/03/26 00:04:02;;;;;;;220.05;91.30;;;5.50;99.90;;;;;;5055222;28;20392;-69
2022/03/26 00:06:28;;;;;;;216.43;91.63;;;5.60;99.90;;;;;;5055351;28;20028;-69
2022/03/26 00:08:54;;;;;;;208.85;90.13;;;5.60;99.90;;;;;;5054649;28;20108;-69
2022/03/26 00:11:20;;;;;;;211.02;89.47;;;5.50;99.90;;;;;;5054992;28;20021;-69
2022/03/26 00:13:45;;;;;;;215.00;93.40;;;5.50;99.90;;;;;;5053797;28;20469;-69
2022/03/26 00:16:11;;;;;;;216.73;91.80;;;5.40;99.90;;;;;;5054715;28;20059;-69
2022/03/26 00:18:38;;;;;;;211.68;91.28;;;5.50;99.90;;;;;;5054459;28;20025;-69
2022/03/26 00:21:04;;;;;;;218.40;91.40;;;5.40;99.90;;;;;;5054531;28;20393;-69
2022/03/26 00:23:29;;;;;;;208.50;91.47;;;5.50;99.90;;;;;;5054527;28;20025;-69
2022/03/26 00:25:58;;;;;;;224.02;93.78;;;5.40;99.90;;;;;;5054725;28;20027;-69
2022/03/26 00:28:24;;;;;;;210.18;89.80;;;5.50;99.90;;;;;;5054360;28;20020;-69
2022/03/26 00:30:50;;;;;;;216.25;95.95;;;5.50;99.90;;;;;;5054377;28;20056;-69
2022/03/26 00:33:16;;;;;;;200.95;89.25;;;5.60;99.90;;;;;;5054593;28;20017;-69
2022/03/26 00:35:42;;;;;;;219.45;94.32;;;5.60;99.90;;;;;;5054279;28;20086;-69
2022/03/26 00:38:08;;;;;;;198.23;92.03;;;5.60;99.90;;;;;;5054146;28;20110;-69
2022/03/26 00:40:34;;;;;;;209.95;95.45;;;5.70;99.90;;;;;;5054246;28;20079;-69
2022/03/26 00:42:59;;;;;;;223.25;95.35;;;5.70;99.90;;;;;;5054157;28;20484;-68
2022/03/26 00:45:26;;;;;;;224.38;95.70;;;5.80;99.90;;;;;;5054328;28;20029;-69
2022/03/26 00:47:52;;;;;;;215.70;94.72;;;5.80;99.90;;;;;;5054005;28;20020;-69
2022/03/26 00:50:17;;;;;;;208.90;93.95;;;5.70;99.90;;;;;;5054195;28;20043;-69
2022/03/26 00:52:43;;;;;;;219.02;96.85;;;5.70;99.90;;;;;;5054792;28;20024;-69
2022/03/26 00:55:09;;;;;;;237.77;99.05;;;5.60;99.90;;;;;;5054441;28;20052;-69
2022/03/26 00:57:36;;;;;;;225.40;97.65;;;5.60;99.90;;;;;;5054353;28;20079;-69
2022/03/26 01:00:01;;;;;;;223.90;96.60;;;5.70;99.90;;;;;;5053864;28;20021;-69
2022/03/26 01:02:27;;;;;;;230.65;100.05;;;5.60;99.90;;;;;;5054192;28;20362;-69
2022/03/26 01:04:53;;;;;;;238.02;98.47;;;5.60;99.90;;;;;;5053860;28;20060;-69
2022/03/26 01:07:18;;;;;;;233.52;101.45;;;5.60;99.90;;;;;;5053823;28;20029;-69
2022/03/26 01:09:44;;;;;;;241.63;103.05;;;5.50;99.90;;;;;;5053685;28;20047;-69
2022/03/26 01:12:10;;;;;;;246.23;104.65;;;5.50;99.90;;;;;;5053661;28;20052;-69
2022/03/26 01:14:35;;;;;;;236.75;103.30;;;5.50;99.90;;;;;;5053655;28;20029;-69
2022/03/26 01:17:01;;;;;;;238.60;99.80;;;5.50;99.90;;;;;;5053649;28;20488;-69
2022/03/26 01:19:27;;;;;;;256.90;102.15;;;5.50;99.90;;;;;;5053605;28;20429;-69
2022/03/26 01:21:53;;;;;;;249.07;103.18;;;5.40;99.90;;;;;;5053636;28;20037;-69
2022/03/26 01:24:18;;;;;;;236.77;101.45;;;5.50;99.90;;;;;;5053631;28;20029;-69
2022/03/26 01:26:44;;;;;;;261.83;108.93;;;5.50;99.90;;;;;;5053501;28;20044;-69
2022/03/26 01:29:10;;;;;;;255.98;103.13;;;5.60;99.90;;;;;;5053435;28;20102;-69
2022/03/26 01:31:37;;;;;;;254.40;106.10;;;5.60;99.90;;;;;;5035617;28;20075;-69
2022/03/26 01:34:03;;;;;;;250.45;104.97;;;5.60;99.90;;;;;;5053815;28;20021;-69
2022/03/26 01:36:28;;;;;;;261.90;105.40;;;5.60;99.90;;;;;;5035554;28;20388;-69
2022/03/26 01:38:54;;;;;;;260.80;105.70;;;5.60;99.90;;;;;;5053391;28;20433;-69
2022/03/26 01:41:20;;;;;;;258.88;106.22;;;5.50;99.90;;;;;;5053713;28;20044;-69
2022/03/26 01:43:46;;;;;;;257.58;103.18;;;5.50;99.90;;;;;;5053348;28;20025;-69
2022/03/26 01:46:12;;;;;;;269.23;108.03;;;5.40;99.90;;;;;;5053345;28;20036;-69
2022/03/26 01:48:38;;;;;;;255.02;104.57;;;5.40;99.90;;;;;;5053269;28;20029;-69
2022/03/26 01:51:14;;;;;;;261.40;107.80;;;5.40;99.90;;;;;;5053550;28;20029;-69
2022/03/26 01:53:45;;;;;;;273.77;106.07;;;5.40;99.90;;;;;;5053848;28;20420;-69
2022/03/26 01:56:11;;;;;;;264.70;106.40;;;5.40;99.90;;;;;;5053595;28;20098;-69
2022/03/26 01:58:36;;;;;;;291.08;113.65;;;5.40;99.90;;;;;;5053241;28;20029;-69
2022/03/26 02:01:02;;;;;;;264.85;107.80;;;5.40;99.90;;;;;;5053213;28;20025;-69
2022/03/26 02:03:28;;;;;;;267.40;104.70;;;5.40;99.90;;;;;;5053473;28;20094;-69
2022/03/26 02:05:55;;;;;;;261.92;104.18;;;5.40;99.90;;;;;;5053773;28;20408;-69
2022/03/26 02:08:20;;;;;;;277.40;108.88;;;5.40;99.90;;;;;;5053637;28;20025;-70
2022/03/26 02:10:46;;;;;;;273.55;105.22;;;5.40;99.90;;;;;;5053583;28;20021;-69
2022/03/26 02:13:11;;;;;;;262.10;105.63;;;5.40;99.90;;;;;;5053573;28;20029;-69
2022/03/26 02:15:37;;;;;;;257.27;104.95;;;5.40;99.90;;;;;;5053128;28;20014;-69
2022/03/26 02:18:03;;;;;;;253.52;100.78;;;5.40;99.90;;;;;;5053387;28;20053;-69
2022/03/26 02:20:30;;;;;;;246.43;99.97;;;5.30;99.90;;;;;;5053042;28;20036;-69
2022/03/26 02:22:56;;;;;;;244.73;100.43;;;5.40;99.90;;;;;;5053300;28;20021;-69
2022/03/26 02:25:22;;;;;;;260.80;103.13;;;5.40;99.90;;;;;;5052972;28;20036;-69
2022/03/26 02:27:47;;;;;;;263.92;100.30;;;5.40;99.90;;;;;;5053218;28;20056;-69
2022/03/26 02:30:13;;;;;;;248.77;97.85;;;5.30;99.90;;;;;;5052931;28;20029;-69
2022/03/26 02:32:39;;;;;;;264.88;98.22;;;5.40;99.90;;;;;;5052948;28;20025;-69
2022/03/26 02:35:05;;;;;;;266.70;102.25;;;5.40;99.90;;;;;;5052938;28;20025;-69
2022/03/26 02:37:32;;;;;;;240.23;96.65;;;5.40;99.90;;;;;;5054788;28;20036;-69
2022/03/26 02:39:59;;;;;;;266.85;101.25;;;5.40;99.90;;;;;;5056603;28;20021;-69
2022/03/26 02:42:25;;;;;;;251.70;99.85;;;5.40;99.90;;;;;;5056701;28;20408;-69
2022/03/26 02:44:51;;;;;;;280.17;103.63;;;5.40;99.90;;;;;;5056549;28;20100;-69
2022/03/26 02:47:17;;;;;;;254.48;99.18;;;5.40;99.90;;;;;;5056337;28;20029;-69
2022/03/26 02:49:43;;;;;;;254.55;97.18;;;5.30;99.90;;;;;;5056244;28;20038;-69
2022/03/26 02:52:08;;;;;;;255.52;97.45;;;5.20;99.90;;;;;;5056259;28;20021;-69
2022/03/26 02:54:35;;;;;;;257.23;100.03;;;5.20;99.90;;;;;;5056733;28;20029;-69
2022/03/26 02:57:01;;;;;;;253.35;95.25;;;5.10;99.90;;;;;;5056454;28;20013;-69
2022/03/26 02:59:27;;;;;;;250.65;94.78;;;5.00;99.90;;;;;;5056160;28;20048;-69
2022/03/26 03:01:52;;;;;;;256.27;95.50;;;5.10;99.90;;;;;;5056429;28;20487;-69
2022/03/26 03:04:20;;;;;;;246.55;95.28;;;5.10;99.90;;;;;;5056087;28;20111;-69
2022/03/26 03:06:46;;;;;;;245.38;93.35;;;5.10;99.90;;;;;;5056000;28;20021;-69
2022/03/26 03:09:12;;;;;;;256.02;97.43;;;5.10;99.90;;;;;;5055900;28;20039;-69
2022/03/26 03:11:37;;;;;;;246.93;94.00;;;5.10;99.90;;;;;;5056431;28;20055;-69
2022/03/26 03:14:04;;;;;;;238.02;95.10;;;5.00;99.90;;;;;;5055863;28;20049;-69
2022/03/26 03:16:31;;;;;;;239.98;90.90;;;4.90;99.90;;;;;;5055980;28;20095;-69
2022/03/26 03:18:56;;;;;;;236.13;91.43;;;4.90;99.90;;;;;;5055746;28;20119;-69
2022/03/26 03:21:22;;;;;;;242.57;90.63;;;4.80;99.90;;;;;;5055817;28;20055;-69
2022/03/26 03:23:47;;;;;;;237.80;91.07;;;4.80;99.90;;;;;;5055958;28;20045;-69
2022/03/26 03:26:15;;;;;;;256.83;91.55;;;4.90;99.90;;;;;;5055847;28;20021;-69
2022/03/26 03:28:41;;;;;;;245.85;87.18;;;4.90;99.90;;;;;;5055567;28;20017;-69
2022/03/26 03:31:07;;;;;;;250.25;92.60;;;5.00;99.90;;;;;;5055778;28;20029;-69
2022/03/26 03:33:33;;;;;;;252.45;92.57;;;5.10;99.90;;;;;;5055518;28;20031;-69
2022/03/26 03:35:59;;;;;;;249.48;89.80;;;5.10;99.90;;;;;;5055737;28;20025;-69
2022/03/26 03:38:25;;;;;;;235.07;88.60;;;5.10;99.90;;;;;;5055955;28;20036;-69
2022/03/26 03:40:51;;;;;;;251.07;89.82;;;5.10;99.90;;;;;;5055490;28;20060;-69
2022/03/26 03:43:17;;;;;;;236.75;88.10;;;5.10;99.90;;;;;;5055620;28;20389;-69
2022/03/26 03:45:43;;;;;;;244.68;88.20;;;5.10;99.90;;;;;;5055358;28;20032;-69
2022/03/26 03:48:09;;;;;;;249.30;90.05;;;5.00;99.90;;;;;;5055223;28;20029;-69
2022/03/26 03:50:34;;;;;;;248.05;90.10;;;5.00;99.90;;;;;;5055106;28;20021;-69
2022/03/26 03:53:00;;;;;;;260.35;89.55;;;5.00;99.90;;;;;;5055107;28;20067;-69
2022/03/26 03:55:27;;;;;;;238.23;90.13;;;5.10;99.90;;;;;;5055136;28;20495;-69
2022/03/26 03:57:53;;;;;;;243.25;88.35;;;5.10;99.90;;;;;;5054977;28;20074;-69
2022/03/26 04:00:19;;;;;;;275.60;88.00;;;5.10;99.90;;;;;;5054911;28;20108;-69
2022/03/26 04:02:44;;;;;;;247.70;85.82;;;5.10;99.90;;;;;;5055020;28;20028;-69
2022/03/26 04:05:10;;;;;;;234.57;87.05;;;5.10;99.90;;;;;;5054910;28;20476;-69
2022/03/26 04:07:46;;;;;;;236.48;87.28;;;5.10;99.90;;;;;;5054742;28;20025;-69
2022/03/26 04:10:12;;;;;;;238.02;86.82;;;5.10;99.90;;;;;;5054879;28;20025;-69
2022/03/26 04:12:39;;;;;;;232.25;84.47;;;5.20;99.90;;;;;;5055035;28;20017;-69
2022/03/26 04:15:06;;;;;;;234.60;86.25;;;5.20;99.90;;;;;;5054680;28;20026;-69
2022/03/26 04:17:34;;;;;;;218.85;83.78;;;5.20;99.90;;;;;;5054981;28;20446;-69
2022/03/26 04:20:01;;;;;;;239.80;82.25;;;5.30;99.90;;;;;;5054604;28;20029;-69
2022/03/26 04:22:27;;;;;;;208.20;79.93;;;5.30;99.90;;;;;;5054595;28;20029;-69
2022/03/26 04:24:52;;;;;;;221.60;80.82;;;5.30;99.90;;;;;;5054595;28;20106;-69
2022/03/26 04:27:18;;;;;;;213.20;78.10;;;5.40;99.90;;;;;;5055111;28;20032;-69
2022/03/26 04:29:44;;;;;;;214.23;78.97;;;5.40;99.90;;;;;;5054684;28;20028;-69
2022/03/26 04:32:12;;;;;;;214.85;77.63;;;5.40;99.90;;;;;;5054356;28;20021;-69
2022/03/26 04:34:38;;;;;;;211.95;77.15;;;5.40;99.90;;;;;;5054303;28;20017;-69
2022/03/26 04:37:05;;;;;;;193.18;72.47;;;5.40;99.90;;;;;;5054279;28;20024;-69
2022/03/26 04:39:31;;;;;;;191.52;71.57;;;5.30;99.90;;;;;;5054211;28;20111;-69
2022/03/26 04:41:57;;;;;;;200.23;71.70;;;5.30;99.90;;;;;;5054762;28;20044;-69
2022/03/26 04:44:22;;;;;;;201.52;74.50;;;5.30;99.90;;;;;;5054194;28;20039;-69
2022/03/26 04:46:48;;;;;;;201.82;74.38;;;5.30;99.90;;;;;;5054140;28;20067;-69
2022/03/26 04:49:13;;;;;;;206.07;73.53;;;5.40;99.90;;;;;;5053983;28;20029;-69
2022/03/26 04:51:39;;;;;;;190.40;73.55;;;5.40;99.90;;;;;;5054281;28;20091;-69
2022/03/26 04:54:05;;;;;;;192.40;76.30;;;5.40;99.90;;;;;;5054017;28;20449;-69
2022/03/26 04:56:30;;;;;;;209.93;73.53;;;5.40;99.90;;;;;;5053959;28;20025;-69
2022/03/26 04:58:57;;;;;;;207.20;76.70;;;5.50;99.90;;;;;;5054166;28;20420;-69
2022/03/26 05:01:23;;;;;;;185.20;72.57;;;5.60;99.90;;;;;;5054114;28;20051;-69
2022/03/26 05:03:49;;;;;;;183.98;70.55;;;5.70;99.90;;;;;;5053926;28;20503;-69
2022/03/26 05:06:15;;;;;;;191.45;71.55;;;5.80;99.90;;;;;;5053751;28;20021;-69
2022/03/26 05:08:41;;;;;;;192.68;71.78;;;6.00;99.90;;;;;;5053796;28;20484;-69
2022/03/26 05:11:07;;;;;;;168.15;65.65;;;6.00;99.90;;;;;;5053997;28;20033;-69
2022/03/26 05:13:32;;;;;;;181.65;69.15;;;6.20;99.90;;;;;;5053699;28;20103;-69
2022/03/26 05:15:58;;;;;;;168.90;65.80;;;6.20;99.90;;;;;;5053721;28;20031;-69
2022/03/26 05:18:24;;;;;;;176.73;67.85;;;6.30;99.90;;;;;;5053566;28;20021;-69
2022/03/26 05:20:50;;;;;;;151.18;64.20;;;6.40;99.90;;;;;;5053674;28;20039;-69
2022/03/26 05:23:15;;;;;;;152.45;60.78;;;6.40;99.90;;;;;;5053900;28;20028;-69
2022/03/26 05:25:41;;;;;;;144.13;56.72;;;6.50;99.90;;;;;;5053834;28;20104;-69
2022/03/26 05:28:07;;;;;;;138.30;57.60;;;6.60;99.90;;;;;;5053580;28;20033;-69
2022/03/26 05:30:32;;;;;;;144.43;56.33;;;6.60;99.90;;;;;;5035629;28;20500;-69
2022/03/26 05:32:59;;;;;;;124.40;51.35;;;6.70;99.90;;;;;;5053601;28;20025;-69
2022/03/26 05:35:25;;;;;;;113.40;49.83;;;6.80;99.90;;;;;;5054017;28;20025;-69
2022/03/26 05:37:51;;;;;;;116.68;48.83;;;6.80;99.90;;;;;;5053260;28;20025;-69
2022/03/26 05:40:19;;;;;;;128.00;50.00;;;6.80;99.90;;;;;;5053400;28;20392;-69
2022/03/26 05:42:46;;;;;;;114.15;47.58;;;6.80;99.90;;;;;;5035910;28;20039;-69
2022/03/26 05:45:12;;;;;;;102.22;46.70;;;6.80;99.90;;;;;;5053413;28;20112;-69
2022/03/26 05:47:38;;;;;;;100.22;45.28;;;6.80;99.90;;;;;;5053264;28;20037;-69
2022/03/26 05:50:06;;;;;;;100.60;44.42;;;6.80;99.90;;;;;;5053262;28;20099;-69
2022/03/26 05:52:32;;;;;;;109.97;43.65;;;6.90;99.90;;;;;;5053301;28;20028;-69
2022/03/26 05:54:57;;;;;;;95.70;39.88;;;6.90;99.90;;;;;;5053288;28;20029;-68
2022/03/26 05:57:23;;;;;;;81.05;38.42;;;7.00;99.90;;;;;;5053211;28;20025;-69
2022/03/26 05:59:48;;;;;;;85.63;38.85;;;7.00;99.90;;;;;;5053331;28;20025;-69
2022/03/26 06:02:15;;;;;;;72.22;37.05;;;7.00;99.90;;;;;;5053210;28;20472;-69
2022/03/26 06:04:44;;;;;;;98.45;39.28;;;7.10;99.90;;;;;;5053235;28;20104;-69
2022/03/26 06:07:10;;;;;;;84.00;38.08;;;7.10;99.90;;;;;;5053334;28;20073;-69
2022/03/26 06:09:36;;;;;;;87.43;39.70;;;7.20;99.90;;;;;;5053189;28;20049;-69
2022/03/26 06:12:03;;;;;;;86.28;38.35;;;7.30;99.90;;;;;;5054474;28;20036;-69
2022/03/26 06:14:29;;;;;;;73.90;33.75;;;7.40;99.90;;;;;;5057138;28;20104;-69
2022/03/26 06:16:55;;;;;;;80.53;34.35;;;7.40;99.90;;;;;;5056980;28;20049;-69
2022/03/26 06:19:21;;;;;;;62.38;32.13;;;7.60;99.90;;;;;;5056887;28;20366;-69
2022/03/26 06:21:47;;;;;;;65.20;30.75;;;7.70;99.90;;;;;;5057147;28;20040;-69
2022/03/26 06:24:12;;;;;;;58.45;28.02;;;7.80;99.90;;;;;;5057011;28;20067;-69
2022/03/26 06:26:39;;;;;;;57.25;27.80;;;7.90;99.90;;;;;;5057071;28;20473;-69
2022/03/26 06:29:05;;;;;;;61.10;27.30;;;8.00;99.90;;;;;;5056711;28;20093;-69
2022/03/26 06:31:31;;;;;;;63.45;27.13;;;8.10;99.90;;;;;;5056666;28;20025;-69
2022/03/26 06:33:58;;;;;;;68.20;28.63;;;8.10;99.90;;;;;;5056593;28;20013;-69
2022/03/26 06:36:24;;;;;;;56.42;25.95;;;8.20;99.90;;;;;;5056538;28;20092;-68
2022/03/26 06:38:49;;;;;;;55.22;27.55;;;8.30;99.90;;;;;;5056399;28;20056;-68
2022/03/26 06:41:18;;;;;;;60.75;26.52;;;8.30;99.90;;;;;;5056571;28;20029;-69
2022/03/26 06:43:44;;;;;;;49.88;25.80;;;8.40;99.90;;;;;;5056468;28;20083;-69
2022/03/26 06:46:10;;;;;;;62.80;22.73;;;8.50;99.90;;;;;;5056557;28;20036;-69
2022/03/26 06:48:36;;;;;;;49.95;23.38;;;8.50;99.90;;;;;;5056443;28;20028;-69
2022/03/26 06:51:04;;;;;;;58.17;24.77;;;8.50;99.90;;;;;;5038560;28;20520;-69
2022/03/26 06:53:30;;;;;;;58.22;24.27;;;8.50;99.90;;;;;;5056325;28;20495;-69
2022/03/26 06:55:57;;;;;;;53.42;23.33;;;8.60;99.90;;;;;;5038369;28;20428;-69
2022/03/26 06:58:23;;;;;;;50.55;22.98;;;8.60;99.90;;;;;;5056334;28;20025;-69
2022/03/26 07:00:49;;;;;;;51.28;22.23;;;8.60;99.90;;;;;;5056119;28;20507;-69
2022/03/26 07:03:15;;;;;;;43.88;21.88;;;8.60;99.90;;;;;;5056115;28;20025;-69
2022/03/26 07:05:40;;;;;;;64.13;20.85;;;8.60;99.90;;;;;;5056079;28;20025;-69
2022/03/26 07:08:06;;;;;;;49.92;21.95;;;8.70;99.90;;;;;;5056536;28;20078;-69
2022/03/26 07:10:32;;;;;;;42.55;19.30;;;8.70;99.90;;;;;;5055914;28;20492;-69
2022/03/26 07:12:57;;;;;;;49.25;20.52;;;8.70;99.90;;;;;;5055967;28;20029;-69
2022/03/26 07:15:23;;;;;;;39.13;19.80;;;8.70;99.90;;;;;;5055974;28;20461;-69
2022/03/26 07:17:48;;;;;;;33.53;17.55;;;8.80;99.90;;;;;;5055728;28;20017;-68
2022/03/26 07:20:14;;;;;;;37.45;17.00;;;8.80;99.90;;;;;;5056036;28;20031;-69
2022/03/26 07:22:41;;;;;;;41.83;15.90;;;8.80;99.90;;;;;;5055937;28;20034;-69
2022/03/26 07:25:09;;;;;;;33.20;15.65;;;8.80;99.90;;;;;;5055949;28;20025;-69
2022/03/26 07:27:36;;;;;;;33.33;16.77;;;8.80;99.90;;;;;;5055672;28;20040;-70
2022/03/26 07:30:04;;;;;;;33.08;14.90;;;8.80;99.90;;;;;;5056119;28;20540;-69
2022/03/26 07:32:29;;;;;;;40.22;14.85;;;8.80;99.90;;;;;;5055914;28;20377;-69
2022/03/26 07:34:55;;;;;;;30.38;14.15;;;8.90;99.90;;;;;;5055604;28;20031;-69
2022/03/26 07:37:21;;;;;;;35.65;14.73;;;8.90;99.90;;;;;;5055370;28;20048;-69
2022/03/26 07:39:47;;;;;;;30.52;13.40;;;8.90;99.90;;;;;;5055479;28;20044;-69
2022/03/26 07:42:12;;;;;;;35.30;13.77;;;8.90;99.90;;;;;;5055397;28;20111;-69
2022/03/26 07:44:38;;;;;;;30.10;14.95;;;8.90;99.90;;;;;;5056512;28;20029;-69
2022/03/26 07:47:04;;;;;;;30.40;12.73;;;8.90;99.90;;;;;;5055602;28;20056;-69
2022/03/26 07:49:30;;;;;;;35.70;13.55;;;8.90;99.90;;;;;;5055741;28;20029;-68
2022/03/26 07:51:56;;;;;;;27.77;12.95;;;9.00;99.90;;;;;;5055299;28;20120;-69
2022/03/26 07:54:21;;;;;;;27.70;10.90;;;8.90;99.90;;;;;;5055140;28;20053;-68
2022/03/26 07:56:47;;;;;;;25.17;10.63;;;8.90;99.90;;;;;;5055165;28;20438;-68
2022/03/26 07:59:13;;;;;;;27.48;10.02;;;8.80;99.90;;;;;;5054996;28;20507;-68
2022/03/26 08:01:38;;;;;;;29.17;9.10;;;8.80;99.90;;;;;;5055390;28;20063;-68
2022/03/26 08:04:04;;;;;;;27.02;10.00;;;8.90;99.90;;;;;;5054997;28;20037;-68
2022/03/26 08:06:29;;;;;;;28.48;8.95;;;8.80;99.90;;;;;;5055484;28;20481;-68
2022/03/26 08:08:55;;;;;;;45.08;10.00;;;8.90;99.90;;;;;;5054759;28;20074;-68
2022/03/26 08:11:21;;;;;;;31.27;9.38;;;8.90;99.90;;;;;;5054724;28;20025;-68
2022/03/26 08:13:47;;;;;;;27.38;9.05;;;8.70;99.90;;;;;;5055029;28;20036;-68
2022/03/26 08:16:12;;;;;;;26.77;6.95;;;8.70;99.90;;;;;;5055147;28;20059;-68
2022/03/26 08:18:38;;;;;;;31.58;8.13;;;8.50;99.90;;;;;;5054745;28;20025;-68
2022/03/26 08:21:04;;;;;;;28.50;6.78;;;8.50;99.90;;;;;;5054701;28;20207;-68
2022/03/26 08:23:30;;;;;;;16.80;5.22;;;8.50;99.90;;;;;;5054759;28;20029;-68
2022/03/26 08:28:40;;;;;;;;;;;8.70;99.90;;;;;;5055017;28;20460;-68
2022/03/26 08:31:06;;;;;;;13.65;4.78;;;8.70;99.90;;;;;;5054352;28;19948;-68
2022/03/26 08:33:31;;;;;;;17.38;5.20;;;8.70;99.90;;;;;;5054706;28;20383;-68
2022/03/26 08:35:57;;;;;;;12.90;4.28;;;8.70;99.90;;;;;;5054220;28;20021;-68
2022/03/26 08:38:23;;;;;;;11.52;4.07;;;8.80;99.90;;;;;;5054127;28;20028;-68
2022/03/26 08:40:48;;;;;;;11.73;3.78;;;8.90;99.90;;;;;;5054888;28;20025;-68
2022/03/26 08:43:14;;;;;;;12.73;4.10;;;9.00;99.90;;;;;;5054226;28;20027;-68
2022/03/26 08:45:41;;;;;;;11.45;3.53;;;8.90;99.90;;;;;;5054159;28;20028;-68
2022/03/26 08:48:07;;;;;;;11.90;3.28;;;8.90;99.90;;;;;;5054019;28;20036;-68
2022/03/26 08:50:34;;;;;;;9.65;3.08;;;8.80;99.90;;;;;;5054921;28;20060;-68
2022/03/26 08:52:59;;;;;;;11.93;3.75;;;8.70;99.90;;;;;;5054398;28;20480;-68
2022/03/26 08:55:25;;;;;;;13.18;3.25;;;8.70;99.90;;;;;;5053948;28;20021;-68
2022/03/26 08:57:51;;;;;;;11.43;3.90;;;8.60;99.90;;;;;;5053984;28;20025;-68
2022/03/26 09:00:17;;;;;;;11.38;4.05;;;8.60;99.90;;;;;;5054464;28;20583;-68
2022/03/26 09:02:44;;;;;;;13.75;3.67;;;8.50;99.90;;;;;;5053874;28;20036;-68
2022/03/26 09:05:12;;;;;;;13.20;4.60;;;8.50;99.90;;;;;;5054155;28;20376;-68
2022/03/26 09:07:38;;;;;;;9.55;3.50;;;8.60;99.90;;;;;;5053805;28;20024;-68
2022/03/26 09:10:04;;;;;;;9.13;3.55;;;8.80;99.90;;;;;;5054136;28;20416;-68
2022/03/26 09:12:29;;;;;;;11.27;3.17;;;8.80;99.90;;;;;;5053774;28;20017;-68
2022/03/26 09:14:55;;;;;;;10.77;3.58;;;8.80;99.90;;;;;;5054351;28;20032;-68
2022/03/26 09:17:20;;;;;;;8.82;3.08;;;8.60;99.90;;;;;;5053500;28;20021;-68
2022/03/26 09:19:46;;;;;;;14.90;3.53;;;8.60;99.90;;;;;;5053622;28;20029;-68
2022/03/26 09:22:12;;;;;;;16.30;4.00;;;8.50;99.90;;;;;;5053627;28;20053;-68
2022/03/26 09:24:37;;;;;;;9.52;3.50;;;8.50;99.90;;;;;;5053504;28;20114;-68
2022/03/26 09:27:03;;;;;;;8.13;3.20;;;8.50;99.90;;;;;;5053920;28;20029;-68
2022/03/26 09:29:30;;;;;;;19.33;3.67;;;8.60;99.90;;;;;;5053380;28;20027;-68
2022/03/26 09:31:55;;;;;;;10.57;3.50;;;8.80;99.90;;;;;;5053457;28;20473;-68
2022/03/26 09:34:21;;;;;;;14.85;3.33;;;8.80;99.90;;;;;;5053746;28;20075;-68
2022/03/26 09:36:47;;;;;;;15.00;3.70;;;8.90;99.90;;;;;;5053518;28;20124;-68
2022/03/26 09:39:12;;;;;;;14.93;3.97;;;8.80;99.90;;;;;;5065353;22;20572;-70
2022/03/26 09:41:39;;;;;;;10.80;4.07;;;8.90;99.90;;;;;;5033271;28;20029;-70
2022/03/26 09:44:06;;;;;;;7.07;3.25;;;9.00;99.90;;;;;;5033291;28;20530;-70
2022/03/26 09:46:35;;;;;;;9.00;2.70;;;9.10;99.90;;;;;;5036056;28;20017;-70
2022/03/26 09:49:02;;;;;;;8.02;2.95;;;9.20;99.90;;;;;;5037594;28;20017;-70
2022/03/26 09:51:28;;;;;;;6.57;3.08;;;9.20;99.90;;;;;;5037604;28;20033;-69
2022/03/26 09:53:54;;;;;;;4.43;2.35;;;9.20;99.90;;;;;;5037717;28;20045;-69
2022/03/26 09:56:23;;;;;;;14.05;2.55;;;9.40;99.90;;;;;;5019506;28;20389;-69
2022/03/26 09:58:52;;;;;;;8.73;2.90;;;9.60;99.90;;;;;;5037331;28;20105;-70
2022/03/26 10:01:17;;;;;;;5.95;2.78;;;9.90;99.90;;;;;;5037374;28;20047;-69
2022/03/26 10:04:13;;;;;;;9.90;2.75;;;9.90;99.90;;;;;;5037105;28;20393;-70
2022/03/26 10:06:48;;;;;;;5.05;2.42;;;10.00;99.90;;;;;;5037412;28;20112;-71
2022/03/26 10:09:33;;;;;;;5.18;2.38;;;10.10;99.90;;;;;;5037096;28;20037;-69
2022/03/26 10:12:12;;;;;;;6.13;2.25;;;10.20;99.90;;;;;;5037204;28;20021;-69
2022/03/26 10:15:01;;;;;;;4.22;2.10;;;10.30;99.90;;;;;;5037194;28;20029;-69
2022/03/26 10:17:28;;;;;;;2.67;1.65;;;10.40;99.90;;;;;;5036805;28;20128;-69
2022/03/26 10:19:59;;;;;;;11.73;2.28;;;10.50;99.90;;;;;;5036945;28;20040;-68
2022/03/26 10:22:31;;;;;;;6.93;2.65;;;10.50;99.90;;;;;;5037088;28;20104;-68
2022/03/26 10:25:00;;;;;;;12.95;2.85;;;10.60;99.90;;;;;;5036991;28;20057;-68
2022/03/26 10:27:26;;;;;;;5.47;2.45;;;10.80;99.90;;;;;;5036725;28;20136;-68
2022/03/26 10:29:54;;;;;;;4.60;2.28;;;11.00;99.90;;;;;;5036501;28;20105;-68
2022/03/26 10:32:39;;;;;;;4.93;1.88;;;11.10;99.90;;;;;;5036730;28;20108;-68
2022/03/26 10:35:09;;;;;;;12.10;2.45;;;11.10;99.90;;;;;;5036531;28;20092;-69
2022/03/26 10:37:58;;;;;;;11.20;2.63;;;10.90;99.90;;;;;;5036475;28;20022;-69
2022/03/26 10:40:27;;;;;;;7.70;3.03;;;10.80;99.90;;;;;;5036421;28;20493;-69
2022/03/26 10:42:54;;;;;;;13.25;2.58;;;10.60;99.90;;;;;;5036365;28;20108;-69
2022/03/26 10:45:20;;;;;;;6.53;2.53;;;10.80;99.90;;;;;;5036757;28;20033;-69
2022/03/26 10:47:48;;;;;;;7.53;2.60;;;11.10;99.90;;;;;;5036205;28;20367;-69
2022/03/26 10:50:14;;;;;;;4.18;2.33;;;11.20;99.90;;;;;;5036430;28;20083;-69
2022/03/26 10:52:41;;;;;;;5.88;2.28;;;11.20;99.90;;;;;;5036163;28;20053;-69
2022/03/26 10:55:18;;;;;;;4.97;2.38;;;11.20;99.90;;;;;;5036189;28;20582;-69
2022/03/26 10:57:45;;;;;;;5.60;2.55;;;11.30;99.90;;;;;;5035640;28;20026;-69
2022/03/26 11:00:13;;;;;;;7.60;2.67;;;11.40;99.90;;;;;;5036574;28;20029;-69
2022/03/26 11:02:38;;;;;;;5.88;2.42;;;11.30;99.90;;;;;;5036257;28;20063;-69
2022/03/26 11:05:05;;;;;;;7.53;1.98;;;11.60;99.90;;;;;;5035958;28;20033;-69
2022/03/26 11:07:32;;;;;;;6.30;2.00;;;11.60;99.90;;;;;;5035825;28;20052;-69
2022/03/26 11:09:58;;;;;;;9.13;2.25;;;11.90;99.90;;;;;;5035679;28;20100;-69
2022/03/26 11:12:25;;;;;;;5.85;2.50;;;11.90;99.90;;;;;;5035845;28;20611;-69
2022/03/26 11:14:54;;;;;;;9.57;2.70;;;11.80;99.90;;;;;;5036038;28;20029;-69
2022/03/26 11:17:38;;;;;;;7.43;2.30;;;11.80;99.90;;;;;;5035859;28;20477;-69
2022/03/26 11:20:12;;;;;;;7.20;2.22;;;12.10;99.90;;;;;;5035628;28;20112;-69
2022/03/26 11:23:05;;;;;;;5.95;2.10;;;12.20;99.90;;;;;;5035874;28;20026;-69
2022/03/26 11:25:55;;;;;;;5.15;2.35;;;12.20;99.90;;;;;;5035915;28;20028;-69
2022/03/26 11:29:02;;;;;;;10.45;2.20;;;12.20;99.90;;;;;;5035704;28;20021;-69
2022/03/26 11:31:34;;;;;;;7.97;1.83;;;12.20;99.90;;;;;;4991675;28;20045;-71
2022/03/26 11:34:08;;;;;;;26.77;2.43;;;12.30;99.90;;;;;;5035500;28;20033;-69
2022/03/26 11:36:34;;;;;;;4.18;1.95;;;12.30;99.90;;;;;;5035768;28;20260;-69
2022/03/26 11:39:19;;;;;;;27.75;3.42;;;12.40;99.90;;;;;;5035364;28;20044;-68
2022/03/26 11:41:45;;;;;;;20.25;2.67;;;12.60;99.90;;;;;;5035344;28;20084;-68
2022/03/26 11:44:12;;;;;;;8.18;1.92;;;12.40;99.90;;;;;;5035223;28;20018;-68
2022/03/26 11:52:24;;;;;;;3.28;1.80;;;12.20;99.90;;;;;;5035481;28;20048;-70
2022/03/26 11:55:10;;;;;;;6.43;2.20;;;12.60;99.90;;;;;;5035059;28;20049;-68
2022/03/26 11:57:36;;;;;;;6.60;2.03;;;12.70;99.90;;;;;;4994866;28;20492;-68
2022/03/26 12:00:01;;;;;;;12.43;2.92;;;12.70;99.90;;;;;;5035104;28;20037;-67
2022/03/26 12:02:38;;;;;;;7.18;2.35;;;12.70;99.90;;;;;;5034921;28;20477;-67
2022/03/26 12:08:15;;;;;;;6.88;2.38;;;13.30;99.90;;;;;;5035260;28;20094;-67
2022/03/26 12:10:43;;;;;;;5.40;2.65;;;13.40;99.90;;;;;;5033904;28;20034;-68
2022/03/26 12:13:10;;;;;;;12.70;2.05;;;13.60;99.90;;;;;;5034657;28;20036;-68
2022/03/26 12:15:36;;;;;;;6.13;1.90;;;13.70;99.90;;;;;;5034619;28;20083;-68
2022/03/26 12:18:08;;;;;;;7.30;1.80;;;13.70;99.90;;;;;;5034438;28;20026;-68
2022/03/26 12:20:45;;;;;;;4.97;2.92;;;13.80;99.90;;;;;;5034525;28;20037;-68
2022/03/26 12:23:12;;;;;;;9.85;2.03;;;14.00;99.90;;;;;;5034723;28;20132;-68
2022/03/26 12:25:46;;;;;;;6.47;2.13;;;14.00;99.90;;;;;;5034425;28;20106;-68
2022/03/26 12:28:14;;;;;;;4.40;1.60;;;14.00;99.90;;;;;;5034527;28;20036;-68
2022/03/26 12:30:50;;;;;;;8.85;2.13;;;14.40;99.90;;;;;;5034252;28;20025;-68
2022/03/26 12:33:17;;;;;;;18.70;2.83;;;14.80;99.90;;;;;;5034344;28;20096;-68
2022/03/26 12:35:45;;;;;;;8.63;2.30;;;14.70;99.90;;;;;;5034229;28;20029;-68
2022/03/26 12:38:11;;;;;;;8.30;2.45;;;15.00;99.90;;;;;;5034044;28;20030;-68
2022/03/26 12:40:38;;;;;;;7.82;1.70;;;15.00;99.90;;;;;;5034486;28;20477;-68
2022/03/26 12:43:07;;;;;;;8.30;2.05;;;15.30;99.90;;;;;;5034294;28;20053;-68
2022/03/26 12:45:33;;;;;;;14.50;2.42;;;15.10;99.90;;;;;;5034598;28;20048;-68
2022/03/26 12:48:00;;;;;;;7.65;2.33;;;15.00;99.90;;;;;;5033962;28;20489;-68